Time;durP1;ratioP1;P1;durP2;ratioP2;P2;SDS_P1;SDS_P2;PMS_P1;PMS_P2;Temp;Humidity;BMP_temperature;BMP_pressure;BME280_temperature;BME280_humidity;BME280_pressure;Samples;Min_cycle;Max_cycle;Signal;HPM_P1;HPM_P2
2023/07/25 00:00:03;;;;;;;3.43;2.53;;;17.90;99.90;;;;;;5029805;28;20243;-62
2023/07/25 00:02:30;;;;;;;3.20;3.10;;;17.90;99.90;;;;;;5031035;28;20202;-63
2023/07/25 00:04:57;;;;;;;3.13;1.83;;;17.80;99.90;;;;;;5026731;28;20206;-65
2023/07/25 00:07:23;;;;;;;3.27;2.97;;;17.80;99.90;;;;;;5018641;28;20227;-52
2023/07/25 00:09:51;;;;;;;3.03;2.73;;;17.70;99.90;;;;;;5027127;28;20222;-52
2023/07/25 00:12:19;;;;;;;6.40;2.37;;;17.60;99.90;;;;;;5025151;28;20257;-52
2023/07/25 00:14:45;;;;;;;3.13;2.77;;;17.60;99.90;;;;;;5033433;28;20749;-52
2023/07/25 00:17:14;;;;;;;3.30;3.00;;;17.50;99.90;;;;;;5045511;28;20525;-52
2023/07/25 00:19:41;;;;;;;2.43;2.23;;;17.50;99.90;;;;;;5029547;28;20198;-52
2023/07/25 00:22:08;;;;;;;3.17;2.73;;;17.40;99.90;;;;;;5028776;28;20206;-52
2023/07/25 00:24:35;;;;;;;2.40;2.20;;;17.40;99.90;;;;;;5019381;28;20203;-52
2023/07/25 00:27:02;;;;;;;3.20;2.90;;;17.40;99.90;;;;;;5029022;28;20214;-52
2023/07/25 00:29:29;;;;;;;3.30;2.53;;;17.40;99.90;;;;;;5030903;28;20309;-52
2023/07/25 00:31:56;;;;;;;2.60;2.50;;;17.40;99.90;;;;;;5030404;28;20256;-51
2023/07/25 00:34:24;;;;;;;2.57;2.47;;;17.40;99.90;;;;;;5027219;28;20637;-51
2023/07/25 00:36:52;;;;;;;3.67;2.10;;;17.40;99.90;;;;;;5030361;28;20269;-52
2023/07/25 00:39:19;;;;;;;2.33;2.00;;;17.40;99.90;;;;;;5030278;28;20296;-52
2023/07/25 00:41:46;;;;;;;3.27;2.97;;;17.40;99.90;;;;;;5030840;28;20198;-51
2023/07/25 00:44:14;;;;;;;2.40;2.30;;;17.40;99.90;;;;;;5029583;28;20668;-52
2023/07/25 00:46:42;;;;;;;2.40;2.30;;;17.40;99.90;;;;;;5030198;28;20668;-52
2023/07/25 00:49:08;;;;;;;2.77;2.63;;;17.40;99.90;;;;;;5030374;28;20310;-52
2023/07/25 00:51:38;;;;;;;2.13;2.03;;;17.40;99.90;;;;;;5029501;28;20303;-51
2023/07/25 00:54:07;;;;;;;2.27;2.10;;;17.40;99.90;;;;;;5032774;28;20206;-52
2023/07/25 00:56:34;;;;;;;2.20;2.00;;;17.40;99.90;;;;;;5022113;28;20253;-52
2023/07/25 00:59:02;;;;;;;2.87;2.23;;;17.40;99.90;;;;;;5019933;28;20250;-52
2023/07/25 01:01:29;;;;;;;2.23;1.97;;;17.40;99.90;;;;;;5029982;28;20285;-52
2023/07/25 01:03:56;;;;;;;2.17;2.07;;;17.30;99.90;;;;;;5024188;28;20677;-52
2023/07/25 01:06:23;;;;;;;2.50;2.30;;;17.30;99.90;;;;;;5084089;22;20211;-54
2023/07/25 01:08:54;;;;;;;2.33;2.23;;;17.70;99.90;;;;;;5065541;28;20243;-50
2023/07/25 01:11:20;;;;;;;1.87;1.77;;;17.30;99.90;;;;;;5064180;28;20263;-50
2023/07/25 01:13:48;;;;;;;3.97;1.90;;;17.20;99.90;;;;;;5063438;28;20201;-51
2023/07/25 01:16:17;;;;;;;1.60;1.60;;;17.20;99.90;;;;;;5071315;28;20205;-51
2023/07/25 01:18:45;;;;;;;3.63;2.30;;;17.20;99.90;;;;;;5049385;28;20201;-50
2023/07/25 01:21:13;;;;;;;3.43;2.33;;;17.30;99.90;;;;;;5060590;28;20214;-51
2023/07/25 01:23:41;;;;;;;2.87;2.67;;;17.30;99.90;;;;;;5033468;28;20248;-51
2023/07/25 01:26:10;;;;;;;1.67;1.60;;;17.30;99.90;;;;;;5041668;28;20201;-51
2023/07/25 01:28:37;;;;;;;2.10;2.00;;;17.30;99.90;;;;;;5048093;28;20275;-50
2023/07/25 01:31:05;;;;;;;2.17;2.00;;;17.30;99.90;;;;;;5040986;28;20264;-50
2023/07/25 01:33:32;;;;;;;2.13;1.93;;;17.30;99.90;;;;;;5051206;28;20233;-51
2023/07/25 01:36:00;;;;;;;3.00;2.80;;;17.40;99.90;;;;;;5052422;28;20252;-50
2023/07/25 01:38:27;;;;;;;3.80;2.57;;;17.40;99.90;;;;;;5033783;28;20233;-50
2023/07/25 01:40:54;;;;;;;2.10;2.00;;;17.40;99.90;;;;;;5041544;28;20194;-51
2023/07/25 01:43:22;;;;;;;2.27;2.13;;;17.40;99.90;;;;;;5062804;28;20205;-51
2023/07/25 01:45:49;;;;;;;2.30;2.00;;;17.40;99.90;;;;;;5050156;28;20202;-51
2023/07/25 01:48:16;;;;;;;1.90;1.80;;;17.30;99.90;;;;;;5058929;28;20225;-51
2023/07/25 01:50:43;;;;;;;1.63;1.53;;;17.30;99.90;;;;;;5048792;28;20218;-51
2023/07/25 01:53:10;;;;;;;1.50;1.50;;;17.30;99.90;;;;;;5049608;28;20622;-50
2023/07/25 01:55:37;;;;;;;1.73;1.63;;;17.30;99.90;;;;;;5059603;28;20260;-50
2023/07/25 01:58:04;;;;;;;2.67;1.63;;;17.30;99.90;;;;;;5049869;28;20218;-50
2023/07/25 02:00:33;;;;;;;2.47;2.27;;;17.20;99.90;;;;;;5059947;28;20190;-51
2023/07/25 02:03:00;;;;;;;1.53;1.53;;;17.20;99.90;;;;;;5057528;28;20201;-50
2023/07/25 02:05:26;;;;;;;2.00;1.73;;;17.20;99.90;;;;;;5062348;28;20209;-50
2023/07/25 02:07:53;;;;;;;1.97;1.77;;;17.50;99.90;;;;;;5060372;28;20229;-51
2023/07/25 02:10:20;;;;;;;2.93;2.00;;;17.30;99.90;;;;;;5071323;28;20217;-50
2023/07/25 02:12:51;;;;;;;1.50;1.43;;;17.30;99.90;;;;;;5059118;28;20209;-50
2023/07/25 02:15:18;;;;;;;1.37;1.37;;;17.30;99.90;;;;;;5051451;28;20202;-50
2023/07/25 02:17:49;;;;;;;1.83;1.73;;;17.30;99.90;;;;;;5048087;28;20221;-50
2023/07/25 02:20:16;;;;;;;1.90;1.87;;;17.30;99.90;;;;;;5055375;28;20201;-51
2023/07/25 02:22:45;;;;;;;2.00;1.90;;;17.20;99.90;;;;;;5059223;28;20206;-50
2023/07/25 02:25:12;;;;;;;1.87;1.70;;;17.20;99.90;;;;;;5051366;28;20320;-50
2023/07/25 02:27:39;;;;;;;1.87;1.80;;;17.20;99.90;;;;;;5040940;28;20226;-50
2023/07/25 02:30:07;;;;;;;1.80;1.70;;;17.10;99.90;;;;;;5037745;28;20205;-50
2023/07/25 02:32:34;;;;;;;3.33;1.73;;;17.20;99.90;;;;;;5049398;28;20237;-50
2023/07/25 02:35:03;;;;;;;1.80;1.47;;;17.20;99.90;;;;;;5069786;28;20201;-50
2023/07/25 02:37:29;;;;;;;1.53;1.47;;;17.20;99.90;;;;;;5058640;28;20762;-50
2023/07/25 02:39:56;;;;;;;2.57;1.70;;;17.20;99.90;;;;;;5052337;28;20239;-51
2023/07/25 02:42:23;;;;;;;1.93;1.60;;;17.10;99.90;;;;;;5055769;28;20651;-50
2023/07/25 02:44:50;;;;;;;2.80;1.40;;;17.10;99.90;;;;;;5048810;28;20202;-50
2023/07/25 02:47:17;;;;;;;6.47;1.60;;;17.00;99.90;;;;;;5062708;28;20225;-50
2023/07/25 02:49:44;;;;;;;2.63;1.93;;;17.00;99.90;;;;;;5072689;28;20570;-50
2023/07/25 02:52:12;;;;;;;1.80;1.70;;;17.00;99.90;;;;;;5074293;28;20275;-51
2023/07/25 02:54:39;;;;;;;2.60;1.40;;;17.00;99.90;;;;;;5063374;28;20197;-50
2023/07/25 02:57:07;;;;;;;1.90;1.70;;;17.00;99.90;;;;;;5058305;28;20649;-50
2023/07/25 02:59:34;;;;;;;2.20;1.47;;;17.00;99.90;;;;;;5054457;28;20202;-50
2023/07/25 03:02:01;;;;;;;1.67;1.40;;;17.00;99.90;;;;;;5052769;28;20689;-51
2023/07/25 03:04:29;;;;;;;1.80;1.70;;;17.00;99.90;;;;;;5065965;28;20193;-51
2023/07/25 03:06:56;;;;;;;2.40;2.20;;;17.00;99.90;;;;;;5074277;28;20294;-50
2023/07/25 03:09:24;;;;;;;2.27;1.97;;;16.90;99.90;;;;;;5057472;28;20744;-50
2023/07/25 03:11:51;;;;;;;2.30;2.20;;;16.80;99.90;;;;;;5056259;28;20249;-50
2023/07/25 03:14:18;;;;;;;2.13;2.03;;;16.80;99.90;;;;;;5054260;28;20251;-50
2023/07/25 03:16:45;;;;;;;2.83;2.63;;;16.90;99.90;;;;;;5053867;28;20217;-50
2023/07/25 03:19:12;;;;;;;2.40;2.20;;;16.90;99.90;;;;;;5065695;28;20243;-51
2023/07/25 03:21:39;;;;;;;2.77;2.60;;;16.90;99.90;;;;;;5065950;28;20198;-50
2023/07/25 03:24:06;;;;;;;2.40;2.30;;;16.90;99.90;;;;;;5065383;28;20662;-50
2023/07/25 03:26:34;;;;;;;2.20;2.10;;;16.90;99.90;;;;;;5065913;28;20201;-51
2023/07/25 03:29:01;;;;;;;3.13;2.93;;;16.90;99.90;;;;;;5065774;28;20243;-50
2023/07/25 03:31:28;;;;;;;2.57;2.47;;;16.90;99.90;;;;;;5066397;28;20229;-51
2023/07/25 03:33:55;;;;;;;2.40;2.30;;;16.90;99.90;;;;;;5046939;28;20244;-50
2023/07/25 03:36:24;;;;;;;2.30;2.20;;;16.80;99.90;;;;;;5050631;28;20202;-50
2023/07/25 03:38:50;;;;;;;2.93;1.70;;;16.80;99.90;;;;;;5063845;28;20663;-50
2023/07/25 03:41:17;;;;;;;2.53;2.33;;;16.90;99.90;;;;;;5066775;28;20247;-50
2023/07/25 03:43:46;;;;;;;3.67;2.77;;;16.90;99.90;;;;;;5063559;28;20196;-50
2023/07/25 03:46:13;;;;;;;3.50;2.43;;;16.90;99.90;;;;;;5043839;28;20202;-51
2023/07/25 03:48:40;;;;;;;3.27;2.97;;;16.80;99.90;;;;;;5056851;28;20592;-50
2023/07/25 03:51:07;;;;;;;3.77;3.40;;;16.80;99.90;;;;;;5073196;28;20221;-50
2023/07/25 03:53:34;;;;;;;3.53;3.33;;;16.90;99.90;;;;;;5073273;28;20620;-50
2023/07/25 03:56:02;;;;;;;2.93;2.73;;;16.90;99.90;;;;;;5056557;28;20206;-51
2023/07/25 03:58:29;;;;;;;3.37;2.83;;;16.80;99.90;;;;;;5058682;28;20213;-50
2023/07/25 04:00:58;;;;;;;2.97;2.70;;;16.90;99.90;;;;;;5059961;28;20276;-50
2023/07/25 04:03:24;;;;;;;5.37;3.00;;;16.80;99.90;;;;;;5067165;28;20253;-50
2023/07/25 04:05:51;;;;;;;2.20;2.10;;;16.90;99.90;;;;;;5073360;28;20228;-50
2023/07/25 04:08:18;;;;;;;3.93;2.20;;;16.90;99.90;;;;;;5059976;28;20253;-50
2023/07/25 04:10:45;;;;;;;3.27;2.90;;;16.80;99.90;;;;;;5052031;28;20289;-50
2023/07/25 04:13:13;;;;;;;2.60;2.40;;;16.80;99.90;;;;;;5071921;28;20201;-50
2023/07/25 04:15:39;;;;;;;2.93;2.27;;;16.70;99.90;;;;;;5059716;28;20254;-50
2023/07/25 04:18:08;;;;;;;2.30;2.10;;;16.70;99.90;;;;;;5058313;28;20218;-50
2023/07/25 04:20:35;;;;;;;2.93;2.23;;;16.80;99.90;;;;;;5035433;28;20267;-50
2023/07/25 04:23:02;;;;;;;2.37;2.27;;;16.70;99.90;;;;;;5051659;28;20206;-50
2023/07/25 04:25:29;;;;;;;3.10;2.77;;;16.70;99.90;;;;;;5051950;28;20202;-50
2023/07/25 04:27:57;;;;;;;2.50;2.40;;;16.70;99.90;;;;;;5040619;28;20218;-50
2023/07/25 04:30:24;;;;;;;2.30;2.20;;;16.70;99.90;;;;;;5035105;28;20206;-51
2023/07/25 04:32:51;;;;;;;3.03;2.57;;;16.70;99.90;;;;;;5060836;28;20214;-50
2023/07/25 04:35:19;;;;;;;2.50;2.33;;;16.70;99.90;;;;;;5071685;28;20201;-50
2023/07/25 04:37:49;;;;;;;2.27;2.07;;;16.70;99.90;;;;;;5061081;28;20251;-50
2023/07/25 04:40:16;;;;;;;3.03;2.67;;;16.70;99.90;;;;;;5031776;28;20206;-50
2023/07/25 04:42:43;;;;;;;2.40;2.20;;;16.70;99.90;;;;;;5031727;28;20199;-50
2023/07/25 04:45:11;;;;;;;4.47;2.83;;;16.70;99.90;;;;;;5042388;28;20209;-50
2023/07/25 04:47:38;;;;;;;3.77;3.20;;;16.80;99.90;;;;;;5063053;28;20774;-50
2023/07/25 04:50:06;;;;;;;3.57;3.27;;;16.80;99.90;;;;;;5054655;28;20228;-50
2023/07/25 04:52:34;;;;;;;3.90;2.90;;;16.80;99.90;;;;;;5056073;28;20213;-51
2023/07/25 04:55:01;;;;;;;2.77;2.57;;;16.90;99.90;;;;;;5044169;28;20210;-50
2023/07/25 04:57:28;;;;;;;3.87;3.67;;;17.10;99.90;;;;;;5055409;28;20270;-50
2023/07/25 04:59:55;;;;;;;3.07;2.87;;;16.90;99.90;;;;;;5069604;28;20556;-50
2023/07/25 05:02:22;;;;;;;4.43;3.50;;;16.90;99.90;;;;;;5059477;28;20201;-50
2023/07/25 05:04:50;;;;;;;4.10;3.13;;;16.90;99.90;;;;;;5063188;28;20264;-50
2023/07/25 05:07:17;;;;;;;3.23;3.03;;;16.90;99.90;;;;;;5024443;28;1346892;-50
2023/07/25 05:09:45;;;;;;;2.57;2.37;;;16.80;99.90;;;;;;5072186;28;20254;-50
2023/07/25 05:12:13;;;;;;;2.80;2.60;;;16.90;99.90;;;;;;5053875;28;20697;-50
2023/07/25 05:14:40;;;;;;;2.70;2.50;;;16.90;99.90;;;;;;5032040;28;20199;-51
2023/07/25 05:17:08;;;;;;;2.77;2.57;;;16.90;99.90;;;;;;5046358;28;20827;-50
2023/07/25 05:19:34;;;;;;;4.40;2.97;;;16.90;99.90;;;;;;5063782;28;20201;-50
2023/07/25 05:22:01;;;;;;;5.57;3.00;;;17.00;99.90;;;;;;5072089;28;20765;-49
2023/07/25 05:24:29;;;;;;;3.13;2.93;;;17.20;99.90;;;;;;5071614;28;20205;-51
2023/07/25 05:26:57;;;;;;;3.60;2.97;;;17.20;99.90;;;;;;5071743;28;20683;-50
2023/07/25 05:29:24;;;;;;;3.27;3.07;;;17.10;99.90;;;;;;5050503;28;20677;-51
2023/07/25 05:31:51;;;;;;;2.87;2.67;;;17.10;99.90;;;;;;5055394;28;20256;-50
2023/07/25 05:34:18;;;;;;;3.47;3.27;;;17.10;99.90;;;;;;5056782;28;20198;-49
2023/07/25 05:36:45;;;;;;;4.23;3.23;;;17.10;99.90;;;;;;5059035;28;20733;-50
2023/07/25 05:39:12;;;;;;;3.30;3.00;;;17.10;99.90;;;;;;5061853;28;20198;-50
2023/07/25 05:41:39;;;;;;;3.30;2.97;;;17.10;99.90;;;;;;5051679;28;20331;-50
2023/07/25 05:44:08;;;;;;;3.73;3.40;;;17.00;99.90;;;;;;5051215;28;20202;-50
2023/07/25 05:46:35;;;;;;;3.20;2.57;;;17.10;99.90;;;;;;5043527;28;20251;-51
2023/07/25 05:49:02;;;;;;;3.83;3.60;;;17.10;99.90;;;;;;5062492;28;20310;-50
2023/07/25 05:51:29;;;;;;;6.47;3.50;;;17.20;99.90;;;;;;5060564;28;20305;-51
2023/07/25 05:53:55;;;;;;;2.83;2.70;;;17.10;99.90;;;;;;5040815;28;20261;-49
2023/07/25 05:56:23;;;;;;;3.13;2.90;;;17.20;99.90;;;;;;5031412;28;20256;-50
2023/07/25 05:58:50;;;;;;;4.10;3.53;;;17.10;99.90;;;;;;5046475;28;20324;-53
2023/07/25 06:01:18;;;;;;;3.57;3.37;;;17.10;99.90;;;;;;5052937;28;20213;-50
2023/07/25 06:03:45;;;;;;;3.90;3.37;;;17.10;99.90;;;;;;5045907;28;20683;-50
2023/07/25 06:06:12;;;;;;;4.00;3.60;;;17.10;99.90;;;;;;5032562;28;20559;-50
2023/07/25 06:08:39;;;;;;;3.70;3.40;;;17.20;99.90;;;;;;5031258;28;20230;-51
2023/07/25 06:11:06;;;;;;;2.47;2.37;;;17.20;99.90;;;;;;5042920;28;20279;-50
2023/07/25 06:13:34;;;;;;;2.97;2.77;;;17.20;99.90;;;;;;5050533;28;20275;-50
2023/07/25 06:16:01;;;;;;;3.07;2.53;;;17.20;99.90;;;;;;5031423;28;20549;-49
2023/07/25 06:18:29;;;;;;;3.13;2.77;;;17.30;99.90;;;;;;5050287;28;20644;-50
2023/07/25 06:20:56;;;;;;;4.73;2.57;;;17.30;99.90;;;;;;5058347;28;20736;-51
2023/07/25 06:23:23;;;;;;;3.43;3.13;;;17.30;99.90;;;;;;5057253;28;20228;-50
2023/07/25 06:25:50;;;;;;;5.43;3.03;;;17.20;99.90;;;;;;5061327;28;20668;-51
2023/07/25 06:28:17;;;;;;;3.00;2.80;;;17.20;99.90;;;;;;5075253;28;20221;-50
2023/07/25 06:30:44;;;;;;;3.03;2.83;;;17.10;99.90;;;;;;5075288;28;20205;-51
2023/07/25 06:33:13;;;;;;;2.77;2.57;;;17.10;99.90;;;;;;5074871;28;20286;-50
2023/07/25 06:35:41;;;;;;;2.03;1.93;;;17.00;99.90;;;;;;5074959;28;20617;-52
2023/07/25 06:38:08;;;;;;;3.33;2.57;;;17.00;99.90;;;;;;5042051;28;20269;-51
2023/07/25 06:40:35;;;;;;;2.40;2.27;;;17.00;99.90;;;;;;5061312;28;20205;-50
2023/07/25 06:43:03;;;;;;;3.00;2.80;;;17.00;99.90;;;;;;5074065;28;20263;-51
2023/07/25 06:45:29;;;;;;;2.33;2.23;;;17.00;99.90;;;;;;5068291;28;20232;-50
2023/07/25 06:47:56;;;;;;;4.67;2.03;;;17.00;99.90;;;;;;5061031;28;20602;-51
2023/07/25 06:50:23;;;;;;;2.50;2.30;;;17.00;99.90;;;;;;5057509;28;20201;-50
2023/07/25 06:52:52;;;;;;;3.70;3.13;;;17.00;99.90;;;;;;5060816;28;20221;-51
2023/07/25 06:55:19;;;;;;;2.90;2.73;;;17.10;99.90;;;;;;5058258;28;20206;-50
2023/07/25 06:57:48;;;;;;;3.10;2.80;;;17.10;99.90;;;;;;5052554;28;20226;-49
2023/07/25 07:00:16;;;;;;;3.43;3.13;;;17.10;99.90;;;;;;5052767;28;20205;-50
2023/07/25 07:02:47;;;;;;;3.40;2.87;;;17.20;99.90;;;;;;5052376;28;20201;-51
2023/07/25 07:05:14;;;;;;;2.00;1.83;;;17.30;99.90;;;;;;5054468;28;20202;-50
2023/07/25 07:07:42;;;;;;;2.77;2.57;;;17.40;99.90;;;;;;5059933;28;20237;-49
2023/07/25 07:10:10;;;;;;;2.50;2.00;;;17.40;99.90;;;;;;5050377;28;20209;-50
2023/07/25 07:12:42;;;;;;;1.90;1.73;;;17.50;99.90;;;;;;5061905;28;20217;-50
2023/07/25 07:15:10;;;;;;;1.90;1.80;;;17.50;99.90;;;;;;5054431;28;20237;-50
2023/07/25 07:17:36;;;;;;;1.80;1.67;;;17.40;99.90;;;;;;5054219;28;20233;-50
2023/07/25 07:20:05;;;;;;;2.20;2.10;;;17.40;99.90;;;;;;5054171;28;20638;-50
2023/07/25 07:22:32;;;;;;;2.00;1.80;;;17.30;99.90;;;;;;5052973;28;20194;-50
2023/07/25 07:24:59;;;;;;;3.03;1.70;;;17.30;99.90;;;;;;5062179;28;20280;-50
2023/07/25 07:27:27;;;;;;;2.43;2.23;;;17.30;99.90;;;;;;5063351;28;20230;-50
2023/07/25 07:29:54;;;;;;;1.93;1.83;;;17.30;99.90;;;;;;5034188;28;20261;-50
2023/07/25 07:32:21;;;;;;;3.80;2.20;;;17.30;99.90;;;;;;5033294;28;20296;-50
2023/07/25 07:34:48;;;;;;;3.80;2.60;;;17.20;99.90;;;;;;5034178;28;20248;-50
2023/07/25 07:37:15;;;;;;;2.00;1.90;;;17.30;99.90;;;;;;5032807;28;20226;-50
2023/07/25 07:39:42;;;;;;;2.87;2.67;;;17.30;99.90;;;;;;5060848;28;20247;-50
2023/07/25 07:42:09;;;;;;;2.17;1.97;;;17.30;99.90;;;;;;5033731;28;20261;-50
2023/07/25 07:44:37;;;;;;;1.83;1.73;;;17.30;99.90;;;;;;5043612;28;20205;-49
2023/07/25 07:47:06;;;;;;;1.87;1.87;;;17.30;99.90;;;;;;5061823;28;20275;-51
2023/07/25 07:49:33;;;;;;;2.57;1.73;;;17.20;99.90;;;;;;5050932;28;20244;-50
2023/07/25 07:52:01;;;;;;;2.60;2.40;;;17.20;99.90;;;;;;5053485;28;20747;-51
2023/07/25 07:54:28;;;;;;;2.90;2.70;;;17.20;99.90;;;;;;5062935;28;20237;-49
2023/07/25 07:56:55;;;;;;;2.67;2.47;;;17.20;99.90;;;;;;5065076;28;20213;-51
2023/07/25 07:59:22;;;;;;;2.50;2.20;;;17.20;99.90;;;;;;5064035;28;20244;-50
2023/07/25 08:01:50;;;;;;;2.07;1.97;;;17.20;99.90;;;;;;5038377;28;20213;-49
2023/07/25 08:04:17;;;;;;;3.20;2.53;;;17.10;99.90;;;;;;5052276;28;20213;-51
2023/07/25 08:06:44;;;;;;;5.00;2.60;;;17.20;99.90;;;;;;5055783;28;20239;-49
2023/07/25 08:09:11;;;;;;;2.93;2.83;;;17.20;99.90;;;;;;5060744;28;20205;-51
2023/07/25 08:11:38;;;;;;;2.63;2.27;;;17.20;99.90;;;;;;5069037;28;20193;-50
2023/07/25 08:14:05;;;;;;;3.80;3.53;;;17.20;99.90;;;;;;5073055;28;20225;-50
2023/07/25 08:16:33;;;;;;;3.40;3.17;;;17.20;99.90;;;;;;5073180;28;20201;-50
2023/07/25 08:19:01;;;;;;;3.17;2.87;;;17.10;99.90;;;;;;5059121;28;20622;-50
2023/07/25 08:21:28;;;;;;;5.30;4.47;;;17.10;99.90;;;;;;5033362;28;20203;-50
2023/07/25 08:23:55;;;;;;;3.40;3.20;;;17.10;99.90;;;;;;5058644;28;20193;-50
2023/07/25 08:26:22;;;;;;;3.20;2.90;;;17.10;99.90;;;;;;5066546;28;20246;-50
2023/07/25 08:28:49;;;;;;;4.27;3.27;;;17.00;99.90;;;;;;5073000;28;20270;-50
2023/07/25 08:31:16;;;;;;;2.60;2.47;;;16.90;99.90;;;;;;5072786;28;20578;-50
2023/07/25 08:33:44;;;;;;;4.33;2.93;;;17.00;99.90;;;;;;5072118;28;20217;-50
2023/07/25 08:36:13;;;;;;;3.87;2.83;;;17.00;99.90;;;;;;5057470;28;20297;-50
2023/07/25 08:38:41;;;;;;;3.43;2.73;;;17.00;99.90;;;;;;5050294;28;20226;-50
2023/07/25 08:41:11;;;;;;;3.30;2.20;;;17.00;99.90;;;;;;5052972;28;20202;-50
2023/07/25 08:43:41;;;;;;;4.47;3.10;;;17.00;99.90;;;;;;5052473;28;20289;-50
2023/07/25 08:46:09;;;;;;;3.67;3.40;;;17.00;99.90;;;;;;5052152;28;20202;-49
2023/07/25 08:48:38;;;;;;;3.33;2.70;;;17.10;99.90;;;;;;5051957;28;20293;-50
2023/07/25 08:51:08;;;;;;;3.13;2.73;;;17.10;99.90;;;;;;5052654;28;20202;-50
2023/07/25 08:53:42;;;;;;;2.87;2.67;;;17.20;99.90;;;;;;5057910;28;20225;-50
2023/07/25 08:56:09;;;;;;;3.97;2.77;;;17.30;99.90;;;;;;5037405;28;20360;-50
2023/07/25 08:58:36;;;;;;;4.73;3.17;;;17.30;99.90;;;;;;5032486;28;20599;-50
2023/07/25 09:01:03;;;;;;;3.90;2.57;;;17.30;99.90;;;;;;5032282;28;20301;-50
2023/07/25 09:03:31;;;;;;;2.53;2.33;;;17.40;99.90;;;;;;5032206;28;20202;-50
2023/07/25 09:06:00;;;;;;;1.77;1.67;;;17.50;99.90;;;;;;5032276;28;20206;-50
2023/07/25 09:08:27;;;;;;;2.20;1.80;;;17.60;99.90;;;;;;5051218;28;20324;-50
2023/07/25 09:10:59;;;;;;;2.23;1.50;;;17.70;99.90;;;;;;5059051;28;20197;-50
2023/07/25 09:13:26;;;;;;;2.80;1.57;;;17.80;99.90;;;;;;5071759;28;20316;-50
2023/07/25 09:15:53;;;;;;;3.63;2.07;;;17.90;99.90;;;;;;5071966;28;20679;-50
2023/07/25 09:18:21;;;;;;;2.30;1.53;;;17.90;99.90;;;;;;5071932;28;20717;-50
2023/07/25 09:20:49;;;;;;;1.93;1.63;;;17.90;99.90;;;;;;5072122;28;20269;-50
2023/07/25 09:23:21;;;;;;;5.37;1.80;;;17.90;99.90;;;;;;5065718;28;20198;-51
2023/07/25 09:25:48;;;;;;;2.03;1.30;;;18.10;99.90;;;;;;5069221;28;20288;-50
2023/07/25 09:28:16;;;;;;;3.07;1.70;;;18.30;99.90;;;;;;5036500;28;20250;-50
2023/07/25 09:30:48;;;;;;;1.17;1.07;;;18.60;99.90;;;;;;5032076;28;20256;-50
2023/07/25 09:33:26;;;;;;;1.30;1.20;;;18.70;99.90;;;;;;5031389;28;20223;-50
2023/07/25 09:35:53;;;;;;;1.57;1.27;;;18.80;99.90;;;;;;5031439;28;20285;-50
2023/07/25 09:38:20;;;;;;;3.27;2.00;;;19.00;99.90;;;;;;5047981;28;20767;-51
2023/07/25 09:40:47;;;;;;;1.60;1.43;;;19.80;99.90;;;;;;5057860;28;20255;-50
2023/07/25 09:43:23;;;;;;;1.67;1.57;;;20.80;99.90;;;;;;5070069;28;20201;-50
2023/07/25 09:45:51;;;;;;;1.10;1.00;;;21.80;99.90;;;;;;5057248;28;20737;-51
2023/07/25 09:48:19;;;;;;;1.10;1.10;;;23.00;99.90;;;;;;5071405;28;20274;-51
2023/07/25 09:50:46;;;;;;;0.90;0.90;;;23.60;99.90;;;;;;5062198;28;20244;-51
2023/07/25 09:53:15;;;;;;;1.47;1.17;;;24.30;99.90;;;;;;5054196;28;20217;-51
2023/07/25 09:55:42;;;;;;;1.53;0.80;;;24.70;99.90;;;;;;5062443;28;20267;-51
2023/07/25 09:58:10;;;;;;;0.93;0.93;;;24.40;99.90;;;;;;5063346;28;20217;-51
2023/07/25 10:00:39;;;;;;;0.70;0.70;;;24.50;99.90;;;;;;5054988;28;20198;-52
2023/07/25 10:03:09;;;;;;;0.50;0.50;;;24.10;99.90;;;;;;5045419;28;20186;-51
2023/07/25 10:05:38;;;;;;;2.33;0.93;;;23.70;99.90;;;;;;5045737;28;20202;-51
2023/07/25 10:08:08;;;;;;;0.97;0.70;;;23.60;99.90;;;;;;5035453;28;20230;-52
2023/07/25 10:10:35;;;;;;;0.90;0.90;;;24.00;99.90;;;;;;5035480;28;20628;-51
2023/07/25 10:13:02;;;;;;;0.80;0.60;;;23.70;99.90;;;;;;5047721;28;20228;-51
2023/07/25 10:15:30;;;;;;;0.67;0.67;;;23.60;99.90;;;;;;5066905;28;20197;-51
2023/07/25 10:18:04;;;;;;;2.53;1.10;;;23.20;99.90;;;;;;5051743;28;20226;-51
2023/07/25 10:20:31;;;;;;;2.83;1.77;;;22.30;99.90;;;;;;5034717;28;20202;-51
2023/07/25 10:23:08;;;;;;;2.57;1.77;;;21.70;99.90;;;;;;5063958;28;20340;-51
2023/07/25 10:25:35;;;;;;;1.70;0.80;;;21.10;99.90;;;;;;5075179;28;20283;-51
2023/07/25 10:28:03;;;;;;;0.70;0.70;;;20.80;99.90;;;;;;5058443;28;20256;-51
2023/07/25 10:30:33;;;;;;;1.27;1.17;;;21.00;99.90;;;;;;5057567;28;20209;-51
2023/07/25 10:33:01;;;;;;;0.87;0.67;;;21.00;99.90;;;;;;5054280;28;20256;-51
2023/07/25 10:35:50;;;;;;;2.40;0.90;;;21.10;99.90;;;;;;5063259;28;20200;-51
2023/07/25 10:38:23;;;;;;;1.00;0.90;;;21.10;99.90;;;;;;5071063;28;20214;-51
2023/07/25 10:40:58;;;;;;;1.33;1.03;;;20.90;99.90;;;;;;5034859;28;20202;-52
2023/07/25 10:43:28;;;;;;;1.00;0.83;;;21.00;99.90;;;;;;5034486;28;20198;-51
2023/07/25 10:45:57;;;;;;;0.90;0.90;;;21.20;99.90;;;;;;5047615;28;20459;-60
2023/07/25 10:48:32;;;;;;;1.63;0.90;;;21.10;99.90;;;;;;5052774;28;20305;-61
2023/07/25 10:51:02;;;;;;;0.90;0.90;;;21.30;99.90;;;;;;5045715;28;20198;-59
2023/07/25 10:53:29;;;;;;;1.03;1.03;;;21.40;99.90;;;;;;5053155;28;20283;-59
2023/07/25 10:56:16;;;;;;;1.33;1.23;;;21.30;99.90;;;;;;5054564;28;20267;-59
2023/07/25 10:59:04;;;;;;;2.50;2.23;;;21.50;99.90;;;;;;5053720;28;20259;-59
2023/07/25 11:01:36;;;;;;;1.53;1.53;;;21.70;99.90;;;;;;5043429;28;20208;-61
2023/07/25 11:04:25;;;;;;;2.10;1.17;;;21.90;99.90;;;;;;5066954;28;20268;-61
2023/07/25 11:06:55;;;;;;;1.07;1.07;;;22.50;99.90;;;;;;5072038;28;20252;-61
2023/07/25 11:09:22;;;;;;;2.00;1.90;;;23.10;99.90;;;;;;5022798;28;20238;-60
2023/07/25 11:11:51;;;;;;;1.20;1.03;;;22.80;99.90;;;;;;5021320;28;20199;-52
2023/07/25 11:14:19;;;;;;;2.07;1.90;;;23.00;99.90;;;;;;5012804;28;20222;-52
2023/07/25 11:16:49;;;;;;;1.63;1.10;;;22.80;99.90;;;;;;5019864;28;20797;-53
2023/07/25 11:19:16;;;;;;;1.37;1.20;;;22.60;99.90;;;;;;5012598;28;20207;-52
2023/07/25 11:21:45;;;;;;;0.80;0.80;;;22.30;99.90;;;;;;5012611;28;20229;-53
2023/07/25 11:24:14;;;;;;;1.23;1.17;;;22.40;99.90;;;;;;5012473;28;20253;-52
2023/07/25 11:26:43;;;;;;;1.80;0.80;;;22.80;99.90;;;;;;5001185;28;20223;-52
2023/07/25 11:29:12;;;;;;;0.70;0.70;;;23.20;99.90;;;;;;4994333;28;20310;-52
2023/07/25 11:31:46;;;;;;;0.97;0.93;;;23.70;99.90;;;;;;5017129;28;20668;-52
2023/07/25 11:34:14;;;;;;;1.13;0.73;;;23.90;99.90;;;;;;5018953;28;20215;-52
2023/07/25 11:36:43;;;;;;;0.70;0.70;;;23.90;99.90;;;;;;5034009;28;20223;-52
2023/07/25 11:39:11;;;;;;;1.80;1.20;;;24.00;99.90;;;;;;5034141;28;20249;-53
2023/07/25 11:41:40;;;;;;;1.10;1.00;;;23.80;99.90;;;;;;5034084;28;20598;-52
2023/07/25 11:44:10;;;;;;;0.80;0.80;;;23.50;99.90;;;;;;5001723;28;20277;-52
2023/07/25 11:46:39;;;;;;;2.27;0.90;;;23.60;99.90;;;;;;5022247;28;20223;-52
2023/07/25 11:49:06;;;;;;;2.50;0.97;;;23.60;99.90;;;;;;5013875;28;20269;-53
2023/07/25 11:51:34;;;;;;;3.40;1.13;;;23.50;99.90;;;;;;5014005;28;20207;-52
2023/07/25 11:54:01;;;;;;;3.10;1.13;;;23.00;99.90;;;;;;5013599;28;20289;-53
2023/07/25 11:56:28;;;;;;;1.90;1.37;;;23.10;99.90;;;;;;5013839;28;20217;-53
2023/07/25 11:59:00;;;;;;;0.90;0.90;;;23.50;99.90;;;;;;5014036;28;20257;-52
2023/07/25 12:01:31;;;;;;;0.70;0.70;;;23.70;99.90;;;;;;5021216;28;20208;-52
2023/07/25 12:04:00;;;;;;;1.20;1.20;;;23.80;99.90;;;;;;5013490;28;20203;-52
2023/07/25 12:06:29;;;;;;;2.80;1.23;;;23.80;99.90;;;;;;5013786;28;20204;-52
2023/07/25 12:08:56;;;;;;;2.03;0.90;;;23.40;99.90;;;;;;5013500;28;20207;-52
2023/07/25 12:11:23;;;;;;;0.93;0.93;;;22.60;99.90;;;;;;5013729;28;20203;-52
2023/07/25 12:13:52;;;;;;;3.00;0.70;;;21.50;99.90;;;;;;5013696;28;20223;-56
2023/07/25 12:16:28;;;;;;;0.70;0.70;;;20.60;99.90;;;;;;5010500;28;20211;-52
2023/07/25 12:18:56;;;;;;;1.23;0.83;;;20.00;99.90;;;;;;5021660;28;20249;-52
2023/07/25 12:21:29;;;;;;;2.37;1.00;;;19.70;99.90;;;;;;5032792;28;20256;-51
2023/07/25 12:23:58;;;;;;;1.73;1.30;;;19.10;99.90;;;;;;5020327;28;20195;-52
2023/07/25 12:26:27;;;;;;;1.55;1.25;;;18.70;99.90;;;;;;5007554;28;20945;-60
2023/07/25 12:28:55;;;;;;;2.43;1.07;;;18.40;99.90;;;;;;5024126;28;20207;-56
2023/07/25 12:31:23;;;;;;;1.40;1.30;;;18.30;99.90;;;;;;5013090;28;20627;-54
2023/07/25 12:33:51;;;;;;;1.17;1.07;;;18.30;99.90;;;;;;5007038;28;20752;-54
2023/07/25 12:36:19;;;;;;;1.07;1.07;;;18.30;99.90;;;;;;4993454;28;20756;-54
2023/07/25 12:38:47;;;;;;;3.20;1.07;;;18.30;99.90;;;;;;4993482;28;20206;-54
2023/07/25 12:41:14;;;;;;;2.87;1.37;;;18.40;99.90;;;;;;5010045;28;20249;-56
2023/07/25 12:43:41;;;;;;;2.00;1.80;;;18.50;99.90;;;;;;5024224;28;20199;-56
2023/07/25 12:46:09;;;;;;;1.53;1.17;;;18.40;99.90;;;;;;5032565;28;20202;-55
2023/07/25 12:48:36;;;;;;;1.63;1.33;;;18.60;99.90;;;;;;5032225;28;20253;-56
2023/07/25 12:51:05;;;;;;;1.73;1.10;;;18.90;99.90;;;;;;5017309;28;20670;-56